Montague Village, Texas
Current Conditions -  °F | °C
As of 6:56 AM on Thursday 30 Oct 2014 (Local Time) from KHLR Reporting Station
Few Clouds Few Clouds  
Wind Chill: 61°   Ceiling: Unl
Heat Index: 61°   Visibility: 10mi
Dew Point: 54°   Wind: 0mph
Humidity: 78%   Direction: NA
Pressure: 30.13"   Gusts: NA
Location:  31.2151°N, 97.7405°W
Report Text: KHLR 301156Z 00000KT 10SM FEW047 16/12 A3013 RMK AO2 SLPNO 58005 T01610122 10167 20156 $
Loading
Personal Weather Stations






























Interactive Weather Map
Tropical Storm Tracking
New forecast layout! Learn more

10-Day Weather Forecast

Advertisements
Track Severe Weather on mobile